Time;durP1;ratioP1;P1;durP2;ratioP2;P2;SDS_P1;SDS_P2;PMS_P1;PMS_P2;Temp;Humidity;BMP_temperature;BMP_pressure;BME280_temperature;BME280_humidity;BME280_pressure;Samples;Min_cycle;Max_cycle;Signal;HPM_P1;HPM_P2
2022/12/29 00:02:22;;;;;;;21.05;19.75;;;;;;;8.97;100.00;99755.59;10580200;28;20059;-84
2022/12/29 00:07:23;;;;;;;21.88;20.48;;;;;;;9.08;100.00;99759.19;10563383;28;20044;-82
2022/12/29 00:12:23;;;;;;;21.08;19.85;;;;;;;9.08;100.00;99743.53;10580562;28;20042;-82
2022/12/29 00:17:24;;;;;;;21.40;20.10;;;;;;;9.08;100.00;99732.56;10520213;28;20036;-84
2022/12/29 00:44:05;;;;;;;24.88;23.10;;;;;;;8.95;100.00;99705.63;10589610;27;20032;-80
2022/12/29 00:54:26;;;;;;;23.85;22.15;;;;;;;9.02;100.00;99721.84;10583739;27;20035;-81
2022/12/29 00:59:27;;;;;;;26.30;24.33;;;;;;;9.04;100.00;99706.72;10586764;27;20097;-81
2022/12/29 01:04:27;;;;;;;26.15;24.05;;;;;;;9.09;100.00;99706.75;10567725;28;20066;-82
2022/12/29 01:15:08;;;;;;;23.70;22.30;;;;;;;9.06;100.00;99688.06;10538313;28;20044;-81
2022/12/29 01:20:10;;;;;;;23.95;22.42;;;;;;;9.17;100.00;99696.31;10540035;28;20067;-82
2022/12/29 01:25:10;;;;;;;24.25;22.65;;;;;;;9.22;100.00;99699.03;10542997;28;20036;-87
2022/12/29 01:30:11;;;;;;;22.95;21.45;;;;;;;9.24;100.00;99691.34;10545548;28;20409;-83
2022/12/29 01:35:12;;;;;;;23.80;22.30;;;;;;;9.26;100.00;99667.19;10527120;28;20441;-82
2022/12/29 01:40:12;;;;;;;22.15;20.85;;;;;;;9.27;100.00;99668.84;10523816;28;20045;-81
2022/12/29 01:45:14;;;;;;;21.70;20.27;;;;;;;9.29;100.00;99661.16;10569625;27;20040;-82
2022/12/29 01:50:28;;;;;;;21.65;20.33;;;;;;;9.29;100.00;99661.97;10563023;27;20049;-83
2022/12/29 01:55:30;;;;;;;21.75;20.35;;;;;;;9.28;100.00;99643.03;10583336;27;20036;-84
2022/12/29 02:00:30;;;;;;;20.10;18.75;;;;;;;9.31;100.00;99639.75;10567003;27;20043;-80
2022/12/29 02:05:53;;;;;;;19.48;18.38;;;;;;;9.35;100.00;99627.09;10582075;27;20027;-83
2022/12/29 02:10:54;;;;;;;18.27;17.00;;;;;;;9.38;100.00;99637.53;10570841;27;20048;-81
2022/12/29 02:16:07;;;;;;;18.05;16.73;;;;;;;9.52;100.00;99620.47;10564716;27;20035;-83
2022/12/29 02:21:29;;;;;;;17.13;16.05;;;;;;;9.56;100.00;99616.88;10563079;28;20108;-83
2022/12/29 02:27:05;;;;;;;17.33;16.25;;;;;;;9.55;100.00;99617.16;10566285;27;20036;-82
2022/12/29 02:32:24;;;;;;;15.80;14.40;;;;;;;9.53;100.00;99600.13;10576335;27;20466;-77
2022/12/29 02:37:29;;;;;;;16.00;15.02;;;;;;;9.56;100.00;99586.66;10549173;28;20044;-77
2022/12/29 02:42:51;;;;;;;15.23;14.25;;;;;;;9.56;100.00;99567.44;10555449;28;20032;-78
2022/12/29 02:47:54;;;;;;;14.70;13.70;;;;;;;9.64;100.00;99579.78;10537860;28;20447;-77
2022/12/29 02:53:05;;;;;;;14.32;13.38;;;;;;;9.59;100.00;99549.56;10523036;28;20039;-75
2022/12/29 02:58:26;;;;;;;14.45;13.52;;;;;;;9.72;100.00;99565.47;10522028;28;20446;-80
2022/12/29 03:03:42;;;;;;;14.98;14.15;;;;;;;9.65;100.00;99570.44;10546512;28;20061;-80
2022/12/29 03:08:50;;;;;;;17.38;16.13;;;;;;;9.58;100.00;99580.91;10570183;28;20090;-77
2022/12/29 03:19:19;;;;;;;16.55;15.75;;;;;;;9.52;100.00;99574.59;10523114;28;20627;-80
2022/12/29 03:24:22;;;;;;;16.02;15.23;;;;;;;9.56;100.00;99556.44;10554835;28;20036;-79
2022/12/29 03:29:22;;;;;;;16.27;15.27;;;;;;;9.47;100.00;99542.47;10538136;28;20032;-81
2022/12/29 03:34:23;;;;;;;15.30;14.43;;;;;;;9.66;100.00;99558.34;10537827;28;20052;-77
2022/12/29 03:39:23;;;;;;;14.20;13.40;;;;;;;9.66;100.00;99561.09;10538587;28;20097;-81
2022/12/29 03:44:37;;;;;;;13.50;12.70;;;;;;;9.67;100.00;99565.47;10538794;28;20032;-79
2022/12/29 03:49:37;;;;;;;13.50;12.73;;;;;;;9.70;100.00;99556.69;10522474;28;20044;-81
2022/12/29 03:54:38;;;;;;;12.18;11.57;;;;;;;9.64;100.00;99568.78;10538459;28;20046;-79
2022/12/29 03:59:38;;;;;;;12.52;11.85;;;;;;;9.57;100.00;99562.75;10538955;28;20047;-80
2022/12/29 04:04:39;;;;;;;12.60;11.80;;;;;;;9.50;100.00;99563.88;10537679;28;20085;-80
2022/12/29 04:09:39;;;;;;;12.23;11.63;;;;;;;9.47;100.00;99552.63;10574665;28;20055;-82
2022/12/29 04:14:40;;;;;;;11.52;10.93;;;;;;;9.44;100.00;99540.25;10586866;27;20054;-80
2022/12/29 04:19:40;;;;;;;10.70;10.10;;;;;;;9.57;100.00;99549.00;10554551;27;20123;-83
2022/12/29 04:24:41;;;;;;;10.60;9.98;;;;;;;9.55;100.00;99556.72;10567607;27;20031;-71
2022/12/29 04:29:41;;;;;;;10.38;9.52;;;;;;;9.56;100.00;99558.38;10587275;27;20092;-78
2022/12/29 04:34:42;;;;;;;11.70;10.80;;;;;;;9.52;100.00;99557.28;10566414;28;20039;-78
2022/12/29 04:39:42;;;;;;;10.48;9.65;;;;;;;9.44;100.00;99565.00;10545292;28;20058;-81
2022/12/29 04:44:43;;;;;;;9.93;8.30;;;;;;;9.43;100.00;99557.88;10544639;28;20036;-82
2022/12/29 04:49:43;;;;;;;6.65;6.05;;;;;;;9.46;100.00;99567.47;10561670;28;20511;-78
2022/12/29 04:54:44;;;;;;;6.00;5.60;;;;;;;9.43;100.00;99579.03;10545903;28;20035;-83
2022/12/29 04:59:44;;;;;;;5.35;5.05;;;;;;;9.35;100.00;99571.34;10560080;28;20074;-81
2022/12/29 05:04:45;;;;;;;6.13;5.72;;;;;;;9.26;100.00;99595.78;10544255;28;20043;-82
2022/12/29 05:09:46;;;;;;;6.40;6.00;;;;;;;9.20;100.00;99597.75;10544904;28;20043;-84
2022/12/29 05:14:46;;;;;;;6.93;6.43;;;;;;;9.14;100.00;99603.53;10526305;28;20037;-74
2022/12/29 05:19:47;;;;;;;8.07;7.57;;;;;;;9.08;100.00;99603.50;10543265;28;20078;-81
2022/12/29 05:24:47;;;;;;;8.73;8.10;;;;;;;8.99;100.00;99585.97;10525622;28;20028;-78
2022/12/29 05:29:48;;;;;;;10.52;8.40;;;;;;;8.89;100.00;99583.22;10525570;28;20047;-78
2022/12/29 05:34:48;;;;;;;11.07;8.10;;;;;;;8.96;100.00;99583.75;10542226;28;20036;-78
2022/12/29 05:39:49;;;;;;;9.57;7.95;;;;;;;8.87;100.00;99582.66;10541620;28;20062;-76
2022/12/29 05:44:53;;;;;;;8.68;7.70;;;;;;;8.79;100.00;99585.97;10543098;28;20043;-78
2022/12/29 05:49:53;;;;;;;13.15;9.18;;;;;;;8.80;100.00;99588.41;10558481;28;20036;-78
2022/12/29 05:54:54;;;;;;;9.93;7.60;;;;;;;8.77;100.00;99582.66;10542683;28;20032;-78
2022/12/29 05:59:54;;;;;;;11.35;7.68;;;;;;;8.67;100.00;99594.44;10541359;28;20035;-79
2022/12/29 06:04:55;;;;;;;8.18;7.30;;;;;;;8.60;100.00;99594.72;10582464;27;20051;-80
2022/12/29 06:09:55;;;;;;;11.18;8.38;;;;;;;8.60;100.00;99594.72;10582324;27;20031;-79
2022/12/29 06:14:56;;;;;;;11.73;8.40;;;;;;;8.52;100.00;99603.50;10584356;27;20036;-79
2022/12/29 06:19:56;;;;;;;9.38;8.02;;;;;;;8.57;100.00;99600.75;10600143;27;20078;-70
2022/12/29 06:24:57;;;;;;;7.70;7.05;;;;;;;8.61;100.00;99612.00;10582628;27;20082;-78
2022/12/29 06:29:57;;;;;;;6.50;5.90;;;;;;;8.68;100.00;99609.81;10582262;27;20084;-82
2022/12/29 06:34:59;;;;;;;7.57;5.60;;;;;;;8.78;100.00;99611.75;10564720;27;20035;-81
2022/12/29 06:39:59;;;;;;;10.23;4.85;;;;;;;8.80;100.00;99610.38;10583408;27;20028;-79
2022/12/29 06:45:00;;;;;;;8.65;5.65;;;;;;;8.88;100.00;99628.22;10581906;27;20043;-79
2022/12/29 06:50:01;;;;;;;8.07;4.68;;;;;;;8.86;100.00;99624.91;10599342;27;20047;-81
2022/12/29 06:55:01;;;;;;;12.88;6.03;;;;;;;8.89;100.00;99638.09;10565000;28;20116;-81
2022/12/29 07:00:04;;;;;;;12.55;4.50;;;;;;;8.92;100.00;99618.34;10582915;27;20032;-78
2022/12/29 07:05:05;;;;;;;10.77;5.47;;;;;;;8.85;100.00;99628.78;10541159;28;20040;-76
2022/12/29 07:10:05;;;;;;;14.05;5.57;;;;;;;8.77;100.00;99627.38;10573230;28;20083;-77
2022/12/29 07:15:06;;;;;;;11.40;4.72;;;;;;;8.68;100.00;99639.97;10580870;27;20471;-77
2022/12/29 07:20:07;;;;;;;10.20;4.78;;;;;;;8.72;100.00;99629.28;10581227;28;20054;-76
2022/12/29 07:25:08;;;;;;;8.70;4.30;;;;;;;8.68;100.00;99634.50;10583083;28;20082;-78
2022/12/29 07:30:09;;;;;;;11.43;5.20;;;;;;;8.62;100.00;99641.91;10580513;28;20039;-77
2022/12/29 07:35:09;;;;;;;10.90;4.28;;;;;;;8.51;100.00;99629.25;10575118;28;20042;-79
2022/12/29 07:40:10;;;;;;;9.70;3.85;;;;;;;8.52;100.00;99636.41;10524612;28;20036;-78
2022/12/29 07:45:11;;;;;;;11.85;4.35;;;;;;;8.69;100.00;99656.19;10601236;27;20060;-77
2022/12/29 07:50:11;;;;;;;14.32;4.40;;;;;;;8.76;100.00;99660.59;10555394;27;20258;-83
2022/12/29 07:55:12;;;;;;;6.15;3.33;;;;;;;8.82;100.00;99651.25;10590160;27;20028;-78
2022/12/29 08:00:13;;;;;;;11.25;3.60;;;;;;;8.88;100.00;99655.66;10589490;27;20048;-78
2022/12/29 08:05:13;;;;;;;14.35;5.75;;;;;;;8.86;100.00;99636.72;10571751;27;20032;-79
2022/12/29 08:10:14;;;;;;;12.30;3.88;;;;;;;8.89;100.00;99654.56;10570073;27;20047;-79
2022/12/29 08:15:15;;;;;;;10.02;3.53;;;;;;;8.97;100.00;99656.78;10561738;28;20284;-78
2022/12/29 08:20:15;;;;;;;12.65;4.07;;;;;;;8.95;100.00;99661.72;10545988;28;20479;-76
2022/12/29 08:25:16;;;;;;;11.55;2.97;;;;;;;8.95;100.00;99667.22;10511951;28;20034;-76
2022/12/29 08:30:16;;;;;;;11.45;2.75;;;;;;;8.94;100.00;99673.78;10545210;28;20039;-78
2022/12/29 08:35:17;;;;;;;9.65;3.20;;;;;;;8.92;100.00;99672.41;10512288;28;20036;-77
2022/12/29 08:40:17;;;;;;;13.30;2.85;;;;;;;9.02;100.00;99678.72;10543905;28;20511;-77
2022/12/29 08:45:18;;;;;;;12.27;3.10;;;;;;;9.09;100.00;99661.97;10543803;28;20044;-77
2022/12/29 08:50:18;;;;;;;15.02;3.30;;;;;;;9.14;100.00;99674.91;10545360;28;20036;-77
2022/12/29 08:55:19;;;;;;;12.23;2.78;;;;;;;9.14;100.00;99669.41;10544722;28;20032;-77
2022/12/29 09:00:20;;;;;;;9.65;2.90;;;;;;;9.13;100.00;99679.56;10546920;28;20028;-73
2022/12/29 09:05:20;;;;;;;15.45;3.70;;;;;;;9.17;100.00;99677.91;10586070;27;20411;-72
2022/12/29 09:10:21;;;;;;;16.40;3.95;;;;;;;9.24;100.00;99655.66;10544978;28;20051;-78
2022/12/29 09:15:21;;;;;;;17.08;3.40;;;;;;;9.30;100.00;99673.78;10545443;28;20043;-76
2022/12/29 09:20:22;;;;;;;12.73;2.40;;;;;;;9.33;100.00;99669.69;10560480;28;20064;-77
2022/12/29 09:25:24;;;;;;;14.98;3.40;;;;;;;9.34;100.00;99672.13;10543055;28;20028;-76
2022/12/29 09:30:24;;;;;;;11.15;3.15;;;;;;;9.31;100.00;99686.44;10544916;28;20043;-77
2022/12/29 09:35:25;;;;;;;10.23;2.90;;;;;;;9.15;100.00;99690.28;10550384;27;20046;-77
2022/12/29 09:40:29;;;;;;;15.63;3.38;;;;;;;8.91;100.00;99706.44;10585546;27;20040;-77
2022/12/29 09:45:33;;;;;;;9.05;3.42;;;;;;;8.80;100.00;99709.16;10567245;27;20035;-76
2022/12/29 09:50:35;;;;;;;16.95;4.68;;;;;;;8.67;100.00;99713.25;10574547;27;20047;-75
2022/12/29 09:55:38;;;;;;;14.70;5.20;;;;;;;8.51;100.00;99714.28;10544036;28;20482;-75
2022/12/29 10:01:06;;;;;;;15.60;5.22;;;;;;;8.50;100.00;99725.56;10546258;28;20146;-75
2022/12/29 10:06:19;;;;;;;13.48;4.20;;;;;;;8.53;100.00;99714.84;10555135;27;20043;-76
2022/12/29 10:11:44;;;;;;;11.52;5.35;;;;;;;8.68;100.00;99717.66;10558957;28;20056;-75
2022/12/29 10:17:06;;;;;;;20.52;4.60;;;;;;;8.65;100.00;99723.66;10561268;27;20050;-75
2022/12/29 10:22:28;;;;;;;10.70;4.40;;;;;;;8.63;100.00;99734.09;10562635;27;20047;-76
2022/12/29 10:27:30;;;;;;;10.10;4.13;;;;;;;8.55;100.00;99737.34;10562452;27;22288;-76
2022/12/29 10:32:39;;;;;;;10.13;4.50;;;;;;;8.51;100.00;99736.22;10543903;27;20032;-76
2022/12/29 10:38:01;;;;;;;11.38;5.55;;;;;;;8.54;100.00;99741.19;10510372;28;20102;-77
2022/12/29 10:43:01;;;;;;;14.05;6.00;;;;;;;8.39;100.00;99746.56;10584232;27;20433;-76
2022/12/29 10:48:31;;;;;;;14.15;5.70;;;;;;;8.41;100.00;99744.41;10582847;28;20039;-76
2022/12/29 10:53:42;;;;;;;19.25;6.93;;;;;;;8.19;100.00;99748.13;10564865;27;20040;-75
2022/12/29 10:58:42;;;;;;;11.13;7.43;;;;;;;8.13;100.00;99757.44;10581583;27;20042;-78
2022/12/29 11:04:12;;;;;;;10.68;9.50;;;;;;;8.16;100.00;99787.03;10527486;28;20032;-78
2022/12/29 11:09:16;;;;;;;15.88;9.05;;;;;;;8.15;100.00;99782.66;10528629;28;20492;-76
2022/12/29 11:14:25;;;;;;;13.70;6.65;;;;;;;8.23;100.00;99803.28;10504501;28;20036;-78
2022/12/29 11:19:27;;;;;;;12.27;7.40;;;;;;;8.19;100.00;99810.38;10521910;28;20066;-76
2022/12/29 11:24:29;;;;;;;9.18;7.30;;;;;;;8.17;100.00;99832.56;10538435;28;20042;-80
2022/12/29 11:29:37;;;;;;;16.77;9.15;;;;;;;8.16;100.00;99844.59;10538999;28;20044;-78
2022/12/29 11:34:38;;;;;;;8.57;7.35;;;;;;;8.09;100.00;99844.03;10555974;28;20101;-77
2022/12/29 11:40:05;;;;;;;14.25;7.72;;;;;;;8.10;100.00;99837.44;10545534;28;20063;-79
2022/12/29 11:45:26;;;;;;;15.70;7.70;;;;;;;8.08;100.00;99850.59;10562455;28;20067;-77
2022/12/29 11:50:31;;;;;;;14.35;7.40;;;;;;;8.08;100.00;99858.81;10581139;28;20035;-78
2022/12/29 11:55:32;;;;;;;10.73;5.22;;;;;;;8.14;100.00;99855.00;10595721;28;20040;-77
2022/12/29 12:00:34;;;;;;;12.68;5.35;;;;;;;8.09;100.00;99868.69;10539126;28;20039;-78
2022/12/29 12:05:41;;;;;;;12.90;6.35;;;;;;;8.09;100.00;99868.69;10524296;28;20028;-78
2022/12/29 12:10:53;;;;;;;15.63;5.85;;;;;;;8.10;100.00;99881.31;10536722;28;20044;-78
2022/12/29 12:16:09;;;;;;;17.60;5.78;;;;;;;8.46;100.00;99884.34;10559896;28;20399;-77
2022/12/29 12:21:16;;;;;;;15.63;4.95;;;;;;;8.61;100.00;99892.66;10545768;28;20058;-78
2022/12/29 12:26:21;;;;;;;17.02;5.03;;;;;;;8.64;100.00;99916.00;10577578;28;20118;-76
2022/12/29 12:31:52;;;;;;;16.02;4.57;;;;;;;8.69;100.00;99916.84;10545464;27;20050;-78
2022/12/29 12:37:31;;;;;;;17.98;5.10;;;;;;;8.76;100.00;99927.59;10581686;27;20044;-77
2022/12/29 12:42:57;;;;;;;15.27;4.93;;;;;;;8.88;100.00;99932.88;10587124;27;20047;-78
2022/12/29 12:48:16;;;;;;;15.52;4.60;;;;;;;9.07;100.00;99960.69;10584910;27;20522;-78
2022/12/29 12:53:22;;;;;;;18.17;3.72;;;;;;;9.25;100.00;99941.03;10586880;27;20044;-79
2022/12/29 12:58:23;;;;;;;14.80;3.20;;;;;;;9.70;100.00;99952.44;10587333;27;20070;-76
2022/12/29 13:03:51;;;;;;;20.42;4.82;;;;;;;10.08;100.00;99947.53;10585129;27;20036;-78
2022/12/29 13:09:33;;;;;;;15.38;2.75;;;;;;;10.11;100.00;99958.00;10529418;27;20043;-77
2022/12/29 13:14:59;;;;;;;19.15;4.25;;;;;;;9.65;100.00;99900.19;10565578;27;20039;-77
2022/12/29 13:20:03;;;;;;;16.27;3.28;;;;;;;9.87;100.00;99972.25;10570163;27;20393;-76
2022/12/29 13:25:06;;;;;;;13.88;3.33;;;;;;;9.60;100.00;99990.88;10567566;27;20662;-77
2022/12/29 13:30:10;;;;;;;9.77;3.35;;;;;;;9.26;100.00;99992.13;10586185;27;20067;-80
2022/12/29 13:35:23;;;;;;;11.25;4.05;;;;;;;9.19;100.00;99991.53;10567835;28;20065;-78
2022/12/29 13:40:25;;;;;;;13.30;3.00;;;;;;;8.93;100.00;99998.81;10551694;28;20055;-78
2022/12/29 13:45:26;;;;;;;14.85;4.70;;;;;;;8.59;100.00;99965.34;10554469;27;20545;-77
2022/12/29 13:50:28;;;;;;;9.90;3.17;;;;;;;8.75;100.00;100012.94;10549370;27;20047;-76
2022/12/29 13:55:28;;;;;;;10.77;4.10;;;;;;;8.77;100.00;100017.06;10566825;27;20157;-76
2022/12/29 14:00:33;;;;;;;12.88;3.80;;;;;;;8.75;100.00;100023.94;10566433;27;20548;-78
2022/12/29 14:05:33;;;;;;;10.60;3.45;;;;;;;8.79;100.00;100036.03;10584489;28;20044;-78
2022/12/29 14:10:38;;;;;;;17.88;6.35;;;;;;;8.77;100.00;100028.06;10554239;28;20072;-78
2022/12/29 14:15:41;;;;;;;12.25;4.10;;;;;;;8.91;100.00;100055.03;10540975;28;20062;-78
2022/12/29 14:20:58;;;;;;;14.20;3.35;;;;;;;8.80;100.00;100060.44;10541227;28;20084;-77
2022/12/29 14:26:05;;;;;;;12.00;4.28;;;;;;;8.74;100.00;100060.69;10541603;28;20030;-77
2022/12/29 14:31:25;;;;;;;15.43;4.18;;;;;;;8.66;100.00;100065.56;10542267;28;20042;-76
2022/12/29 14:36:33;;;;;;;13.63;4.63;;;;;;;8.55;100.00;100074.78;10542827;27;20045;-77
2022/12/29 14:41:35;;;;;;;16.23;3.65;;;;;;;8.49;100.00;100078.56;10548038;27;20240;-77
2022/12/29 14:46:49;;;;;;;14.65;4.57;;;;;;;8.34;100.00;100078.41;10556517;28;20102;-76
2022/12/29 14:51:53;;;;;;;15.57;4.05;;;;;;;8.21;100.00;100093.38;10542011;28;20476;-76
2022/12/29 14:56:59;;;;;;;13.57;3.85;;;;;;;8.11;100.00;100085.84;10538423;28;20029;-77
2022/12/29 15:02:02;;;;;;;13.05;3.60;;;;;;;8.17;100.00;100112.22;10523362;28;20109;-75
2022/12/29 15:07:06;;;;;;;15.25;3.28;;;;;;;8.12;100.00;100109.41;10539353;28;20127;-75
2022/12/29 15:12:35;;;;;;;13.50;3.55;;;;;;;8.10;100.00;100114.34;10530456;28;20047;-76
2022/12/29 15:17:38;;;;;;;14.60;3.25;;;;;;;8.11;100.00;100107.78;10574424;28;20042;-77
2022/12/29 15:22:45;;;;;;;9.95;2.78;;;;;;;8.14;100.00;100111.91;10582972;28;20032;-75
2022/12/29 15:27:53;;;;;;;13.00;4.50;;;;;;;7.95;100.00;100111.41;10597937;27;20032;-76
2022/12/29 15:32:54;;;;;;;15.30;4.72;;;;;;;7.73;100.00;100123.22;10546991;28;20031;-77
2022/12/29 15:37:55;;;;;;;10.40;3.70;;;;;;;7.69;100.00;100127.56;10580602;28;20113;-77
2022/12/29 15:43:17;;;;;;;15.80;3.72;;;;;;;7.68;100.00;100129.44;10579725;27;20062;-75
2022/12/29 15:48:19;;;;;;;12.52;3.45;;;;;;;7.67;100.00;100141.50;10582431;27;20043;-75
2022/12/29 15:53:24;;;;;;;8.90;3.70;;;;;;;7.62;100.00;100152.38;10582993;27;20042;-76
2022/12/29 15:58:26;;;;;;;13.02;4.20;;;;;;;7.61;100.00;100153.47;10581248;27;20038;-74
2022/12/29 16:03:35;;;;;;;9.38;4.75;;;;;;;7.55;100.00;100145.44;10563139;27;20020;-76
2022/12/29 16:08:39;;;;;;;14.57;4.05;;;;;;;7.50;100.00;100145.34;10542140;27;20040;-74
2022/12/29 16:13:40;;;;;;;7.95;4.00;;;;;;;7.55;100.00;100145.44;10548676;27;20036;-74
2022/12/29 16:18:41;;;;;;;12.00;5.47;;;;;;;7.60;100.00;100159.19;10539136;27;20338;-74
2022/12/29 16:23:41;;;;;;;8.07;3.05;;;;;;;7.55;100.00;100153.66;10529298;28;20062;-75
2022/12/29 16:28:42;;;;;;;15.43;3.95;;;;;;;7.50;100.00;100150.81;10511430;28;20040;-77
2022/12/29 16:34:13;;;;;;;14.55;4.18;;;;;;;7.46;100.00;100150.47;10528198;28;20032;-77
2022/12/29 16:39:30;;;;;;;9.15;3.75;;;;;;;7.42;100.00;100144.72;10535607;27;20066;-78
2022/12/29 16:44:30;;;;;;;10.13;4.18;;;;;;;7.45;100.00;100149.66;10548316;28;20042;-76
2022/12/29 16:49:32;;;;;;;10.13;4.38;;;;;;;7.51;100.00;100136.06;10588751;27;20079;-76
2022/12/29 16:54:36;;;;;;;15.25;7.00;;;;;;;6.47;100.00;99968.69;10586850;27;20031;-76
2022/12/29 16:59:42;;;;;;;18.33;6.80;;;;;;;7.65;100.00;100145.56;10552268;27;20042;-75
2022/12/29 17:04:43;;;;;;;11.75;4.45;;;;;;;7.64;100.00;100154.88;10560413;27;20039;-75
2022/12/29 17:09:44;;;;;;;15.32;5.25;;;;;;;7.65;100.00;100148.31;10564388;27;20036;-77
2022/12/29 17:15:08;;;;;;;13.45;4.57;;;;;;;7.59;100.00;100160.28;10564615;27;20036;-76
2022/12/29 17:20:22;;;;;;;5.32;2.92;;;;;;;7.55;100.00;100176.38;10561786;27;20052;-78
2022/12/29 17:25:26;;;;;;;4.85;3.03;;;;;;;7.24;100.00;100177.81;10562232;27;20052;-75
2022/12/29 17:30:27;;;;;;;5.07;3.38;;;;;;;7.05;100.00;100186.28;10529543;27;20049;-78
2022/12/29 17:35:28;;;;;;;8.07;4.55;;;;;;;6.90;100.00;100196.13;10562118;27;20082;-78
2022/12/29 17:40:31;;;;;;;7.18;3.67;;;;;;;6.93;100.00;100207.41;10544268;28;20419;-76
2022/12/29 17:45:32;;;;;;;12.35;5.28;;;;;;;6.82;100.00;100184.53;10583354;28;20040;-76
2022/12/29 17:50:32;;;;;;;11.60;3.75;;;;;;;6.57;100.00;100152.03;10583518;28;20036;-75
2022/12/29 17:55:33;;;;;;;5.35;3.35;;;;;;;6.83;100.00;100207.22;10584731;27;20065;-78
2022/12/29 18:00:33;;;;;;;11.60;3.58;;;;;;;6.84;100.00;100219.81;10585026;27;20378;-75
2022/12/29 18:05:34;;;;;;;7.72;3.38;;;;;;;6.83;100.00;100231.84;10566475;27;20065;-79
2022/12/29 18:10:34;;;;;;;9.13;4.13;;;;;;;6.73;100.00;100228.94;10565473;28;20051;-79
2022/12/29 18:15:35;;;;;;;11.15;4.97;;;;;;;6.72;100.00;100239.06;10581603;27;20069;-78
2022/12/29 18:20:35;;;;;;;10.73;5.20;;;;;;;6.61;100.00;100243.47;10568471;27;20042;-76
2022/12/29 18:25:40;;;;;;;11.02;5.55;;;;;;;6.59;100.00;100240.16;10565087;27;20031;-74
2022/12/29 18:30:40;;;;;;;11.05;6.20;;;;;;;6.50;100.00;100247.09;10597896;27;20042;-76
2022/12/29 18:35:51;;;;;;;13.93;6.00;;;;;;;6.50;100.00;100257.19;10557998;27;20043;-77
2022/12/29 18:40:52;;;;;;;9.98;7.45;;;;;;;6.33;100.00;100240.72;10548441;27;20043;-79
2022/12/29 18:45:52;;;;;;;14.13;7.07;;;;;;;6.42;100.00;100266.59;10563718;27;20061;-78
2022/12/29 18:50:53;;;;;;;15.60;9.20;;;;;;;6.55;100.00;100274.56;10563871;27;20054;-74
2022/12/29 18:55:56;;;;;;;13.23;9.20;;;;;;;6.58;100.00;100279.53;10564451;28;20217;-76
2022/12/29 19:00:56;;;;;;;15.75;7.65;;;;;;;6.42;100.00;100250.19;10561653;27;20028;-76
2022/12/29 19:05:57;;;;;;;16.80;6.68;;;;;;;6.41;100.00;100259.50;10580525;27;20415;-76
2022/12/29 19:10:58;;;;;;;10.82;5.28;;;;;;;6.57;100.00;100283.31;10539554;28;20028;-76
2022/12/29 19:15:58;;;;;;;9.35;6.00;;;;;;;6.57;100.00;100285.22;10535473;28;20127;-76
2022/12/29 19:20:59;;;;;;;14.80;6.80;;;;;;;6.60;100.00;100293.78;10581054;28;20490;-76
2022/12/29 19:25:59;;;;;;;16.20;8.68;;;;;;;6.58;100.00;100293.19;10563870;28;20058;-75
2022/12/29 19:31:01;;;;;;;22.75;8.68;;;;;;;6.59;100.00;100296.75;10581061;28;20039;-76
2022/12/29 19:36:01;;;;;;;18.60;8.48;;;;;;;6.64;100.00;100308.66;10563036;28;20046;-74
2022/12/29 19:41:05;;;;;;;16.60;8.60;;;;;;;6.76;100.00;100315.97;10549484;27;20043;-75
2022/12/29 19:46:07;;;;;;;18.88;7.65;;;;;;;6.72;100.00;100309.31;10574987;27;20035;-76
2022/12/29 19:51:12;;;;;;;14.23;7.60;;;;;;;6.82;100.00;100331.41;10587788;27;20035;-76
2022/12/29 19:56:13;;;;;;;18.20;8.07;;;;;;;6.84;100.00;100329.28;10577544;27;20032;-76
2022/12/29 20:01:18;;;;;;;12.38;8.45;;;;;;;6.78;100.00;100330.25;10560948;27;20035;-76
2022/12/29 20:06:19;;;;;;;15.52;6.15;;;;;;;6.77;100.00;100329.41;10587831;28;20120;-75
2022/12/29 20:11:19;;;;;;;18.98;6.18;;;;;;;6.72;100.00;100334.78;10569525;27;20047;-76
2022/12/29 20:16:20;;;;;;;12.27;6.22;;;;;;;6.63;100.00;100320.63;10569068;27;20040;-75
2022/12/29 20:21:22;;;;;;;12.30;6.15;;;;;;;6.64;100.00;100336.00;10586628;27;20059;-77
2022/12/29 20:26:24;;;;;;;18.35;7.05;;;;;;;6.63;100.00;100345.25;10569215;27;20031;-76
2022/12/29 20:31:27;;;;;;;18.33;8.30;;;;;;;6.66;100.00;100338.50;10585473;27;20036;-76
2022/12/29 20:36:32;;;;;;;18.77;9.00;;;;;;;6.54;100.00;100329.47;10560098;27;20042;-78
2022/12/29 20:41:32;;;;;;;13.63;6.38;;;;;;;6.55;100.00;100353.88;10559445;27;20044;-76
2022/12/29 20:46:33;;;;;;;12.45;6.40;;;;;;;6.44;100.00;100349.22;10546838;27;20040;-75
2022/12/29 20:51:33;;;;;;;22.30;7.38;;;;;;;6.40;100.00;100364.44;10522970;28;20040;-76
2022/12/29 20:56:34;;;;;;;19.25;7.35;;;;;;;6.20;100.00;100362.94;10540669;28;20376;-75
2022/12/29 21:01:34;;;;;;;17.40;7.53;;;;;;;6.18;100.00;100370.53;10540138;28;20089;-77
2022/12/29 21:06:35;;;;;;;26.00;8.95;;;;;;;6.20;100.00;100384.78;10540635;28;20040;-77
2022/12/29 21:11:35;;;;;;;19.17;6.25;;;;;;;6.17;100.00;100395.38;10539162;28;20066;-77
2022/12/29 21:16:36;;;;;;;14.32;6.03;;;;;;;6.10;100.00;100398.22;10538435;28;20067;-77
2022/12/29 21:21:38;;;;;;;19.58;7.13;;;;;;;6.08;100.00;100392.16;10519661;28;20063;-78
2022/12/29 21:26:38;;;;;;;16.88;6.35;;;;;;;6.06;100.00;100399.75;10555571;28;20043;-78
2022/12/29 21:31:39;;;;;;;23.73;8.15;;;;;;;5.98;100.00;100403.66;10536392;28;20040;-78
2022/12/29 21:36:39;;;;;;;13.18;6.82;;;;;;;5.92;100.00;100414.69;10554954;28;20559;-77
2022/12/29 21:41:40;;;;;;;22.27;6.88;;;;;;;5.90;100.00;100416.81;10549316;27;20502;-79
2022/12/29 21:46:45;;;;;;;15.45;6.07;;;;;;;5.92;100.00;100420.13;10582299;27;20036;-76
2022/12/29 21:51:49;;;;;;;16.48;6.97;;;;;;;5.94;100.00;100420.75;10511865;28;20046;-76
2022/12/29 21:56:49;;;;;;;24.77;8.73;;;;;;;5.91;100.00;100419.28;10543168;28;20051;-76
2022/12/29 22:17:50;;;;;;;15.35;6.03;;;;;;;6.09;100.00;100436.72;10583727;27;20320;-77
2022/12/29 22:22:51;;;;;;;21.15;6.95;;;;;;;5.98;100.00;100430.16;10563047;27;20065;-76
2022/12/29 22:27:51;;;;;;;17.17;5.85;;;;;;;6.03;100.00;100460.34;10564886;27;20049;-76
2022/12/29 22:32:52;;;;;;;17.05;5.88;;;;;;;5.98;100.00;100468.41;10550599;27;20032;-76
2022/12/29 22:37:52;;;;;;;23.25;6.30;;;;;;;5.94;100.00;100467.19;10576245;27;20057;-77
2022/12/29 22:42:53;;;;;;;13.48;5.93;;;;;;;5.93;100.00;100465.50;10513297;27;20036;-77
2022/12/29 22:47:53;;;;;;;11.10;5.82;;;;;;;6.01;100.00;100487.06;10582944;27;20077;-78
2022/12/29 22:52:54;;;;;;;16.48;6.78;;;;;;;5.98;100.00;100490.28;10598221;27;20035;-75
2022/12/29 22:57:54;;;;;;;20.85;7.47;;;;;;;5.91;100.00;100473.09;10553421;28;20032;-76
2022/12/29 23:02:55;;;;;;;28.33;9.00;;;;;;;5.52;100.00;100409.81;10567987;27;20047;-77
2022/12/29 23:07:55;;;;;;;22.75;7.15;;;;;;;6.16;100.00;100498.41;10562834;27;20035;-77
2022/12/29 23:12:55;;;;;;;23.05;8.55;;;;;;;6.13;100.00;100509.78;10563760;28;20039;-75
2022/12/29 23:17:56;;;;;;;25.48;8.13;;;;;;;6.06;100.00;100528.19;10579025;28;20062;-75
2022/12/29 23:22:56;;;;;;;19.45;7.25;;;;;;;6.08;100.00;100526.06;10563422;27;20052;-75
2022/12/29 23:27:57;;;;;;;25.02;7.32;;;;;;;6.07;100.00;100521.66;10563166;28;20783;-75
2022/12/29 23:32:57;;;;;;;21.55;7.85;;;;;;;6.09;100.00;100538.66;10562519;28;20084;-77
2022/12/29 23:37:58;;;;;;;23.67;7.90;;;;;;;6.04;100.00;100549.47;10545648;28;20039;-77
2022/12/29 23:42:58;;;;;;;23.08;6.57;;;;;;;5.97;100.00;100565.09;10580112;28;20069;-76
2022/12/29 23:47:59;;;;;;;17.30;7.57;;;;;;;5.85;100.00;100562.31;10550805;28;20044;-75
2022/12/29 23:52:59;;;;;;;24.90;6.93;;;;;;;5.74;100.00;100577.56;10538894;28;20040;-76
2022/12/29 23:58:00;;;;;;;19.50;7.70;;;;;;;5.59;100.00;100561.56;10538033;28;20032;-76
